Time;durP1;ratioP1;P1;durP2;ratioP2;P2;SDS_P1;SDS_P2;PMS_P1;PMS_P2;Temp;Humidity;BMP_temperature;BMP_pressure;BME280_temperature;BME280_humidity;BME280_pressure;Samples;Min_cycle;Max_cycle;Signal;HPM_P1;HPM_P2
2021/04/21 00:01:39;;;;;;;64.22;32.60;;;;;;;7.01;79.70;101976.03;5041651;28;20065;-73
2021/04/21 00:04:06;;;;;;;58.25;30.75;;;;;;;7.01;80.04;101986.66;5041011;28;20245;-74
2021/04/21 00:06:35;;;;;;;64.35;33.50;;;;;;;7.03;79.64;101986.66;5037720;28;20056;-73
2021/04/21 00:09:06;;;;;;;55.92;29.05;;;;;;;6.97;79.61;101979.56;5039851;28;20150;-73
2021/04/21 00:11:34;;;;;;;61.58;31.50;;;;;;;6.95;79.56;101981.34;5044258;28;20064;-72
2021/04/21 00:14:01;;;;;;;62.45;30.80;;;;;;;6.92;79.75;101984.88;5038019;28;20067;-73
2021/04/21 00:16:29;;;;;;;64.15;32.75;;;;;;;6.90;79.95;101991.94;5045851;28;20055;-75
2021/04/21 00:18:57;;;;;;;66.85;32.75;;;;;;;6.88;80.50;101988.41;5038487;28;20135;-74
2021/04/21 00:21:25;;;;;;;73.75;35.28;;;;;;;6.87;80.97;101991.94;5041528;28;20056;-75
2021/04/21 00:23:52;;;;;;;65.45;34.40;;;;;;;6.86;80.70;101984.88;5041243;28;20056;-75
2021/04/21 00:26:24;;;;;;;63.03;33.10;;;;;;;6.84;80.46;101988.41;5042824;28;20080;-75
2021/04/21 00:28:53;;;;;;;63.05;32.30;;;;;;;6.78;80.00;101983.97;5038614;28;20061;-76
2021/04/21 00:31:23;;;;;;;60.97;31.60;;;;;;;6.71;80.62;101980.44;5042226;28;20061;-75
2021/04/21 00:33:54;;;;;;;61.38;32.08;;;;;;;6.69;80.23;101991.91;5035894;28;20054;-74
2021/04/21 00:36:23;;;;;;;56.60;30.92;;;;;;;6.64;80.24;101986.59;5043979;28;20158;-75
2021/04/21 00:38:52;;;;;;;58.40;30.58;;;;;;;6.62;81.30;101987.47;5040783;28;20061;-75
2021/04/21 00:41:31;;;;;;;58.00;31.50;;;;;;;6.59;80.26;101988.38;5041491;28;20075;-74
2021/04/21 00:44:03;;;;;;;63.83;31.65;;;;;;;6.54;80.66;101985.69;5042049;28;20065;-75
2021/04/21 00:46:34;;;;;;;54.70;31.02;;;;;;;6.53;81.30;101986.56;5041821;28;21388;-75
2021/04/21 00:49:08;;;;;;;66.00;34.53;;;;;;;6.49;80.67;101989.22;5041714;28;20378;-75
2021/04/21 00:51:42;;;;;;;61.63;34.33;;;;;;;6.46;80.38;101981.25;5040244;28;20063;-75
2021/04/21 00:54:16;;;;;;;67.47;36.05;;;;;;;6.45;81.45;101988.31;5042806;28;20061;-75
2021/04/21 00:56:56;;;;;;;63.70;33.88;;;;;;;6.41;80.80;101985.66;5044434;28;20172;-76
2021/04/21 00:59:33;;;;;;;63.55;32.60;;;;;;;6.38;80.80;101978.56;5042150;28;20494;-73
2021/04/21 01:02:02;;;;;;;59.67;32.08;;;;;;;6.33;81.48;101975.91;5040197;28;20053;-73
2021/04/21 01:04:29;;;;;;;62.00;31.65;;;;;;;6.31;80.79;101972.34;5040777;28;20061;-73
2021/04/21 01:06:57;;;;;;;63.03;34.72;;;;;;;6.27;81.98;101975.00;5041094;28;20475;-72
2021/04/21 01:09:26;;;;;;;65.57;34.72;;;;;;;6.28;82.22;101984.69;5039612;28;20355;-73
2021/04/21 01:11:58;;;;;;;59.72;32.00;;;;;;;6.24;81.38;101983.81;5038863;28;20083;-74
2021/04/21 01:14:27;;;;;;;63.10;32.92;;;;;;;6.25;82.85;101982.94;5044264;28;20087;-73
2021/04/21 01:16:58;;;;;;;60.22;34.22;;;;;;;6.21;82.91;101978.50;5039864;28;20071;-72
2021/04/21 01:19:37;;;;;;;69.75;36.38;;;;;;;6.22;82.91;101979.41;5041508;28;20626;-75
2021/04/21 01:22:14;;;;;;;70.45;38.03;;;;;;;6.19;82.20;101982.91;5039311;28;20071;-75
2021/04/21 01:24:48;;;;;;;56.53;31.10;;;;;;;6.14;82.07;101979.34;5043446;28;20746;-75
2021/04/21 01:27:19;;;;;;;58.25;32.08;;;;;;;6.11;81.94;101974.03;5055572;28;20071;-75
2021/04/21 01:29:50;;;;;;;61.72;33.63;;;;;;;6.08;82.55;101979.31;5043429;28;20072;-74
2021/04/21 01:32:21;;;;;;;66.43;35.65;;;;;;;6.03;82.63;101984.59;5037215;28;20139;-75
2021/04/21 01:34:50;;;;;;;63.60;33.80;;;;;;;6.03;83.38;101968.72;5040996;28;20160;-75
2021/04/21 01:37:21;;;;;;;68.85;35.83;;;;;;;6.04;82.88;101973.09;5035681;28;20057;-75
2021/04/21 01:39:54;;;;;;;57.05;30.52;;;;;;;6.01;82.41;101972.22;5042151;28;20060;-75
2021/04/21 01:42:26;;;;;;;71.15;37.10;;;;;;;6.00;82.94;101973.09;5040441;28;20130;-75
2021/04/21 01:44:56;;;;;;;62.63;33.03;;;;;;;5.94;82.30;101974.81;5041018;28;20053;-74
2021/04/21 01:47:23;;;;;;;61.72;32.65;;;;;;;5.96;82.42;101978.38;5041280;28;20065;-75
2021/04/21 01:49:57;;;;;;;58.80;32.00;;;;;;;5.94;82.60;101977.47;5040116;28;20068;-74
2021/04/21 01:52:51;;;;;;;60.75;33.97;;;;;;;5.90;82.85;101980.09;5041018;28;20421;-74
2021/04/21 01:55:34;;;;;;;61.60;32.47;;;;;;;5.91;82.49;101973.91;5039065;28;20064;-76
2021/04/21 01:58:13;;;;;;;61.27;35.40;;;;;;;5.89;81.78;101970.34;5040508;28;20581;-75
2021/04/21 02:00:45;;;;;;;56.30;28.65;;;;;;;5.89;81.25;101981.84;5044042;28;20053;-75
2021/04/21 02:03:17;;;;;;;54.90;29.50;;;;;;;5.90;81.70;101978.31;5040473;28;20064;-75
2021/04/21 02:06:04;;;;;;;55.40;30.30;;;;;;;5.92;82.26;101980.97;5055024;28;20266;-75
2021/04/21 02:08:37;;;;;;;53.03;31.30;;;;;;;5.97;81.84;101984.56;5041524;28;20069;-76
2021/04/21 02:11:14;;;;;;;61.22;34.00;;;;;;;6.05;82.26;101977.53;5042162;28;20578;-75
2021/04/21 02:14:01;;;;;;;58.58;33.75;;;;;;;6.07;82.14;101975.78;5039574;28;20068;-76
2021/04/21 02:16:39;;;;;;;62.00;33.20;;;;;;;6.13;81.53;101986.41;5035940;28;20069;-75
2021/04/21 02:19:18;;;;;;;65.05;35.92;;;;;;;6.23;81.64;101987.34;5039335;28;20052;-75
2021/04/21 02:21:51;;;;;;;67.10;38.88;;;;;;;6.29;81.95;101987.38;5041326;28;20168;-77
2021/04/21 02:24:29;;;;;;;65.55;36.60;;;;;;;6.41;81.63;101983.88;5038642;28;20440;-75
2021/04/21 02:27:04;;;;;;;63.97;36.83;;;;;;;6.46;82.08;101989.19;5058789;28;20087;-74
2021/04/21 02:29:39;;;;;;;63.72;34.80;;;;;;;6.42;82.24;101982.09;5038012;28;20244;-75
2021/04/21 02:32:15;;;;;;;60.22;35.10;;;;;;;6.39;82.20;101987.41;5041417;28;20053;-75
2021/04/21 02:34:52;;;;;;;59.28;36.47;;;;;;;6.39;82.12;101990.94;5036581;28;21418;-77
2021/04/21 02:37:24;;;;;;;53.88;33.70;;;;;;;6.33;82.48;101983.88;5039937;28;20060;-77
2021/04/21 02:40:01;;;;;;;63.10;34.15;;;;;;;6.32;82.31;101983.84;5039594;28;20148;-75
2021/04/21 02:42:37;;;;;;;62.97;34.05;;;;;;;6.28;82.68;101987.34;5042715;28;20064;-75
2021/04/21 02:45:16;;;;;;;57.63;35.15;;;;;;;6.23;82.72;101990.00;5034849;28;20061;-76
2021/04/21 02:47:47;;;;;;;56.45;33.53;;;;;;;6.20;82.86;101991.72;5041323;28;20053;-73
2021/04/21 02:50:19;;;;;;;56.80;34.05;;;;;;;6.15;82.71;101992.59;5036100;28;20064;-73
2021/04/21 02:53:00;;;;;;;65.68;35.95;;;;;;;6.09;82.90;101997.88;5037497;28;20071;-76
2021/04/21 02:55:36;;;;;;;53.95;30.80;;;;;;;6.10;82.97;101994.34;5036530;28;20773;-75
2021/04/21 02:58:09;;;;;;;56.60;35.72;;;;;;;6.07;83.37;101996.09;5037609;28;20112;-76
2021/04/21 03:00:44;;;;;;;50.90;29.92;;;;;;;6.05;83.24;101995.22;5040667;28;20079;-76
2021/04/21 03:03:24;;;;;;;56.38;33.63;;;;;;;5.98;83.31;101996.94;5038723;28;20354;-76
2021/04/21 03:05:58;;;;;;;51.08;30.80;;;;;;;5.94;83.37;101998.66;5042112;28;20053;-75
2021/04/21 03:08:29;;;;;;;60.67;33.55;;;;;;;5.89;83.67;101983.59;5038403;28;20831;-76
2021/04/21 03:11:04;;;;;;;54.33;31.65;;;;;;;5.92;82.91;101994.22;5041355;28;20087;-76
2021/04/21 03:13:36;;;;;;;55.53;32.58;;;;;;;5.92;83.41;101989.78;5039624;28;20061;-73
2021/04/21 03:16:08;;;;;;;61.85;33.95;;;;;;;5.90;82.97;101995.97;5037913;28;20299;-76
2021/04/21 03:18:41;;;;;;;54.92;31.42;;;;;;;5.88;83.46;101995.09;5043643;28;20409;-76
2021/04/21 03:21:13;;;;;;;50.42;29.27;;;;;;;5.86;83.24;101987.13;5042224;28;20061;-76
2021/04/21 03:23:43;;;;;;;46.35;27.95;;;;;;;5.86;83.30;101989.78;5056554;28;20564;-76
2021/04/21 03:26:11;;;;;;;56.38;31.33;;;;;;;5.85;82.67;101992.41;5037790;28;20348;-76
2021/04/21 03:28:41;;;;;;;48.33;28.02;;;;;;;5.82;82.67;101989.75;5042793;28;20089;-76
2021/04/21 03:31:12;;;;;;;51.60;28.55;;;;;;;5.76;82.45;101996.78;5041771;28;20061;-75
2021/04/21 03:33:46;;;;;;;52.65;29.92;;;;;;;5.73;82.76;101995.88;5043426;28;20059;-77
2021/04/21 03:36:15;;;;;;;46.42;29.98;;;;;;;5.66;82.74;101992.28;5040735;28;20053;-73
2021/04/21 03:38:43;;;;;;;45.63;26.42;;;;;;;5.61;82.56;101994.03;5038167;28;20065;-75
2021/04/21 03:41:11;;;;;;;52.20;30.80;;;;;;;5.57;81.92;101989.59;5038976;28;20083;-73
2021/04/21 03:43:40;;;;;;;53.60;29.80;;;;;;;5.50;82.82;101979.81;5035553;28;20068;-72
2021/04/21 03:46:08;;;;;;;47.65;28.10;;;;;;;5.46;82.50;101981.56;5041023;28;20342;-73
2021/04/21 03:48:37;;;;;;;44.65;26.63;;;;;;;5.39;82.52;101988.56;5034801;28;20092;-73
2021/04/21 03:51:07;;;;;;;48.60;25.35;;;;;;;5.33;82.42;101980.59;5031160;28;20137;-72
2021/04/21 03:53:36;;;;;;;47.63;27.92;;;;;;;5.29;83.07;101991.13;5034515;28;20060;-73
2021/04/21 03:56:05;;;;;;;49.47;28.77;;;;;;;5.25;82.94;101979.66;5035273;28;20387;-74
2021/04/21 03:58:33;;;;;;;45.50;27.08;;;;;;;5.23;83.27;101991.97;5032281;28;20075;-73
2021/04/21 04:01:04;;;;;;;50.90;30.27;;;;;;;5.19;82.76;101992.81;5042134;28;20061;-74
2021/04/21 04:03:32;;;;;;;48.75;29.42;;;;;;;5.15;83.99;101996.31;5040343;28;20150;-76
2021/04/21 04:06:07;;;;;;;42.85;25.73;;;;;;;5.11;83.51;101986.56;5041129;28;20111;-76
2021/04/21 04:08:42;;;;;;;52.25;30.00;;;;;;;5.04;83.30;101991.81;5036881;28;20057;-73
2021/04/21 04:11:14;;;;;;;48.22;27.23;;;;;;;5.03;83.87;101997.09;5038453;28;20357;-73
2021/04/21 04:13:44;;;;;;;47.47;28.95;;;;;;;5.02;84.60;101985.63;5038725;28;20060;-73
2021/04/21 04:16:12;;;;;;;52.67;29.23;;;;;;;4.98;83.59;101998.81;5035990;28;20083;-73
2021/04/21 04:18:41;;;;;;;52.47;29.65;;;;;;;5.00;84.42;102003.22;5041611;28;20512;-72
2021/04/21 04:21:12;;;;;;;44.72;27.40;;;;;;;4.99;84.32;102004.13;5033152;28;20084;-72
2021/04/21 04:23:41;;;;;;;50.45;30.45;;;;;;;5.02;85.03;102011.19;5044687;28;20486;-74
2021/04/21 04:26:09;;;;;;;60.10;33.03;;;;;;;4.97;84.41;101999.66;5041743;28;20084;-73
2021/04/21 04:28:38;;;;;;;44.63;25.65;;;;;;;4.95;84.39;102009.34;5039572;28;20066;-73
2021/04/21 04:31:07;;;;;;;48.90;30.70;;;;;;;4.92;84.58;102007.59;5042252;28;20063;-73
2021/04/21 04:33:35;;;;;;;47.55;28.48;;;;;;;4.91;84.05;102010.22;5042733;28;20060;-73
2021/04/21 04:36:02;;;;;;;50.13;30.20;;;;;;;4.96;84.63;102019.94;5041406;28;20099;-73
2021/04/21 04:38:30;;;;;;;51.40;28.73;;;;;;;4.95;85.03;102014.66;5044825;28;20057;-76
2021/04/21 04:40:58;;;;;;;59.08;32.08;;;;;;;5.01;85.23;102020.00;5044801;28;20518;-75
2021/04/21 04:43:25;;;;;;;59.30;33.22;;;;;;;5.10;85.27;102019.22;5057935;28;20140;-75
2021/04/21 04:45:57;;;;;;;58.50;33.97;;;;;;;5.18;84.86;102022.81;5042681;28;20081;-76
2021/04/21 04:48:30;;;;;;;61.72;35.08;;;;;;;5.20;84.89;102021.06;5042426;28;20092;-77
2021/04/21 04:51:00;;;;;;;54.03;32.50;;;;;;;5.24;84.81;102026.41;5042765;28;20068;-76
2021/04/21 04:53:31;;;;;;;59.60;34.83;;;;;;;5.28;85.11;102021.13;5045072;28;20065;-76
2021/04/21 04:56:00;;;;;;;58.03;35.83;;;;;;;5.29;85.02;102023.78;5040676;28;20471;-75
2021/04/21 04:58:28;;;;;;;64.50;37.03;;;;;;;5.31;85.29;102026.44;5044073;28;20061;-75
2021/04/21 05:01:04;;;;;;;62.50;34.38;;;;;;;5.31;85.40;102030.00;5042870;28;20179;-75
2021/04/21 05:03:39;;;;;;;60.00;33.85;;;;;;;5.32;85.25;102036.16;5063525;28;20061;-76
2021/04/21 05:06:11;;;;;;;64.78;38.33;;;;;;;5.37;85.79;102029.16;5041976;28;20056;-77
2021/04/21 05:08:43;;;;;;;63.92;37.80;;;;;;;5.42;85.93;102027.44;5041916;28;20057;-76
2021/04/21 05:11:14;;;;;;;70.20;38.33;;;;;;;5.47;85.65;102031.00;5045397;28;20060;-76
2021/04/21 05:13:45;;;;;;;64.45;38.55;;;;;;;5.51;85.69;102035.44;5043398;28;20525;-77
2021/04/21 05:16:51;;;;;;;68.13;38.35;;;;;;;5.54;85.90;102042.53;5047319;28;20272;-77
2021/04/21 05:20:04;;;;;;;74.15;41.97;;;;;;;5.59;85.95;102039.03;4968866;28;20116;-74
2021/04/21 05:23:16;;;;;;;66.93;39.28;;;;;;;5.60;85.76;102046.13;5037625;28;20079;-74
2021/04/21 05:26:24;;;;;;;79.32;44.47;;;;;;;5.69;86.14;102057.66;4982063;28;20072;-74
2021/04/21 05:29:38;;;;;;;71.80;38.95;;;;;;;5.73;85.85;102051.50;5050763;28;20475;-74
2021/04/21 05:32:44;;;;;;;74.30;42.17;;;;;;;5.85;85.57;102058.66;5041218;28;20057;-74
2021/04/21 05:35:55;;;;;;;68.75;37.88;;;;;;;5.92;85.61;102065.75;5038046;28;20061;-74
2021/04/21 05:39:06;;;;;;;67.30;40.67;;;;;;;5.97;85.39;102061.41;5056567;28;20063;-74
2021/04/21 05:42:19;;;;;;;76.40;41.22;;;;;;;6.06;85.38;102060.56;5002516;28;20057;-73
2021/04/21 05:45:14;;;;;;;62.15;37.65;;;;;;;6.14;84.71;102058.84;5036978;28;20057;-74
2021/04/21 05:48:21;;;;;;;72.15;42.30;;;;;;;6.25;85.02;102062.47;5042654;28;20085;-76
2021/04/21 05:51:26;;;;;;;62.45;39.30;;;;;;;6.34;84.35;102067.78;5039900;28;20055;-75
2021/04/21 05:54:22;;;;;;;63.33;38.80;;;;;;;6.42;83.94;102067.84;5040953;28;20053;-76
2021/04/21 05:57:08;;;;;;;68.43;39.55;;;;;;;6.46;83.78;102074.06;5041809;28;20175;-76
2021/04/21 06:00:12;;;;;;;61.03;36.22;;;;;;;6.56;83.69;102077.63;5044053;28;20057;-79
2021/04/21 06:02:45;;;;;;;70.18;41.00;;;;;;;6.69;83.14;102074.13;5039578;28;20099;-75
2021/04/21 06:05:15;;;;;;;63.97;38.65;;;;;;;6.78;82.82;102074.19;5042119;28;20061;-75
2021/04/21 06:07:43;;;;;;;69.45;38.67;;;;;;;6.85;82.92;102073.31;5041030;28;20075;-75
2021/04/21 06:10:23;;;;;;;68.05;40.92;;;;;;;6.82;83.27;102077.72;5040695;28;20064;-75
2021/04/21 06:12:54;;;;;;;59.80;39.60;;;;;;;6.95;83.28;102082.19;5040121;28;20079;-75
2021/04/21 06:15:26;;;;;;;74.65;39.90;;;;;;;7.05;83.04;102078.69;5038112;28;20456;-78
2021/04/21 06:17:56;;;;;;;59.13;37.33;;;;;;;7.24;82.73;102086.69;5043682;28;20075;-76
2021/04/21 06:20:31;;;;;;;66.75;39.75;;;;;;;7.36;82.77;102083.16;5038104;28;20067;-76
2021/04/21 06:23:07;;;;;;;59.00;36.08;;;;;;;7.45;82.49;102080.50;5047484;28;20052;-76
2021/04/21 06:25:36;;;;;;;71.60;40.22;;;;;;;7.46;82.59;102084.94;5039283;28;20069;-76
2021/04/21 06:28:08;;;;;;;65.72;40.00;;;;;;;7.66;82.37;102080.50;5045477;28;20060;-76
2021/04/21 06:30:36;;;;;;;69.75;40.30;;;;;;;7.67;82.17;102086.69;5041130;28;20087;-76
2021/04/21 06:33:07;;;;;;;69.32;41.83;;;;;;;7.74;82.67;102093.78;5043538;28;20065;-76
2021/04/21 06:35:35;;;;;;;75.57;41.97;;;;;;;7.74;82.86;102095.56;5045128;28;20060;-76
2021/04/21 06:38:03;;;;;;;73.47;42.28;;;;;;;7.87;82.95;102092.00;5043464;28;20069;-76
2021/04/21 06:40:32;;;;;;;72.32;42.30;;;;;;;8.00;82.60;102092.88;5042784;28;20057;-77
2021/04/21 06:43:00;;;;;;;73.28;42.80;;;;;;;8.04;82.30;102094.66;5041004;28;20069;-73
2021/04/21 06:45:29;;;;;;;75.05;40.72;;;;;;;8.13;82.17;102097.28;5055851;28;20395;-73
2021/04/21 06:47:57;;;;;;;71.72;37.42;;;;;;;8.27;82.10;102099.03;5034912;28;20068;-73
2021/04/21 06:50:30;;;;;;;70.50;40.65;;;;;;;8.32;82.17;102097.25;5040680;28;20060;-73
2021/04/21 06:53:05;;;;;;;70.38;39.22;;;;;;;8.74;81.38;102098.03;5035757;28;20068;-73
2021/04/21 06:55:33;;;;;;;66.20;37.85;;;;;;;9.01;80.08;102094.34;5036788;28;20096;-73
2021/04/21 06:58:01;;;;;;;64.78;35.80;;;;;;;8.78;79.72;102098.00;5038309;28;20057;-74
2021/04/21 07:00:29;;;;;;;63.95;35.30;;;;;;;8.95;79.45;102105.88;5039084;28;20061;-73
2021/04/21 07:02:57;;;;;;;58.42;33.60;;;;;;;9.06;77.79;102103.19;5036567;28;20065;-75
2021/04/21 07:05:31;;;;;;;56.17;31.17;;;;;;;9.05;77.92;102111.19;5037251;28;20095;-74
2021/04/21 07:08:06;;;;;;;52.00;30.73;;;;;;;9.08;77.72;102105.84;5037759;28;20064;-74
2021/04/21 07:10:34;;;;;;;50.58;31.73;;;;;;;9.28;77.30;102103.94;5035869;28;20200;-73
2021/04/21 07:13:02;;;;;;;50.58;30.38;;;;;;;9.77;76.15;102096.47;5035670;28;20064;-73
2021/04/21 07:15:30;;;;;;;52.20;28.27;;;;;;;9.72;74.34;102099.16;5038881;28;20685;-73
2021/04/21 07:17:57;;;;;;;46.10;26.73;;;;;;;9.79;73.68;102092.00;5036164;28;20535;-73
2021/04/21 07:20:25;;;;;;;42.58;25.63;;;;;;;10.04;73.59;102104.19;5038052;28;20082;-73
2021/04/21 07:22:54;;;;;;;43.55;24.63;;;;;;;10.40;71.93;102101.19;5051012;28;20065;-73
2021/04/21 07:25:21;;;;;;;41.15;24.92;;;;;;;10.74;71.49;102101.66;5040332;28;20470;-72
2021/04/21 07:27:52;;;;;;;41.63;23.90;;;;;;;10.81;70.15;102106.06;5037538;28;20092;-72
2021/04/21 07:30:30;;;;;;;41.20;23.40;;;;;;;11.16;69.69;102103.81;5038196;28;20105;-73
2021/04/21 07:32:57;;;;;;;40.55;23.08;;;;;;;11.45;68.05;102106.03;5039353;28;20053;-72
2021/04/21 07:35:27;;;;;;;39.80;23.05;;;;;;;11.69;67.68;102103.88;5038854;28;20068;-73
2021/04/21 07:37:56;;;;;;;39.47;23.63;;;;;;;11.69;67.56;102106.53;5053791;28;20562;-73
2021/04/21 07:40:26;;;;;;;39.42;22.63;;;;;;;11.36;67.90;102108.84;5035695;28;20481;-73
2021/04/21 07:43:09;;;;;;;33.75;20.75;;;;;;;11.65;67.15;102119.09;5039277;28;20053;-73
2021/04/21 07:45:45;;;;;;;39.53;22.30;;;;;;;11.80;67.08;102107.25;5038251;28;20057;-72
2021/04/21 07:48:41;;;;;;;37.85;21.92;;;;;;;11.96;66.36;102119.47;5037473;28;20088;-72
2021/04/21 07:51:34;;;;;;;36.05;21.95;;;;;;;11.89;66.81;102120.47;5036923;28;20057;-72
2021/04/21 07:54:07;;;;;;;38.15;20.45;;;;;;;11.49;66.28;102137.16;5040512;28;20099;-76
2021/04/21 07:56:37;;;;;;;39.28;22.67;;;;;;;11.47;66.75;102130.94;5041501;28;20119;-76
2021/04/21 07:59:22;;;;;;;40.92;22.20;;;;;;;11.82;65.53;102144.69;5043296;28;20053;-72
2021/04/21 08:01:54;;;;;;;41.25;22.75;;;;;;;11.72;66.71;102141.25;5039046;28;20076;-74
2021/04/21 08:04:27;;;;;;;45.22;23.05;;;;;;;11.72;66.37;102142.13;5047362;28;20384;-76
2021/04/21 08:06:57;;;;;;;42.80;23.85;;;;;;;11.55;66.95;102139.72;5030688;28;20056;-76
2021/04/21 08:09:34;;;;;;;40.50;22.85;;;;;;;11.32;67.74;102147.19;5031233;28;20095;-76
2021/04/21 08:12:15;;;;;;;41.50;24.05;;;;;;;11.96;65.76;102143.53;5025155;28;21547;-76
2021/04/21 08:14:45;;;;;;;47.03;25.48;;;;;;;12.06;66.27;102151.44;5032109;28;20387;-76
2021/04/21 08:17:15;;;;;;;41.20;22.23;;;;;;;13.10;63.28;102150.31;5028104;28;20061;-76
2021/04/21 08:19:44;;;;;;;40.28;23.13;;;;;;;13.15;62.69;102143.91;5031763;28;20183;-76
2021/04/21 08:22:12;;;;;;;44.17;22.73;;;;;;;12.03;65.04;102141.66;5029585;28;20072;-76
2021/04/21 08:24:43;;;;;;;42.30;23.92;;;;;;;12.27;64.63;102153.69;5046298;28;20064;-75
2021/04/21 08:27:13;;;;;;;42.35;22.50;;;;;;;12.76;64.36;102153.69;5045274;28;20202;-76
2021/04/21 08:29:41;;;;;;;48.30;24.77;;;;;;;12.66;64.21;102147.63;5043553;28;20411;-73
2021/04/21 08:32:16;;;;;;;43.85;25.30;;;;;;;12.22;65.15;102157.38;5056684;28;20048;-72
2021/04/21 08:34:44;;;;;;;47.88;24.50;;;;;;;12.62;64.42;102162.00;5041001;28;20092;-72
2021/04/21 08:37:11;;;;;;;48.33;25.85;;;;;;;12.11;65.77;102165.59;5040553;28;20115;-72
2021/04/21 08:39:39;;;;;;;41.70;23.95;;;;;;;11.50;67.09;102176.34;5041957;28;20250;-73
2021/04/21 08:42:10;;;;;;;42.17;22.85;;;;;;;11.45;68.24;102163.94;5040836;28;20072;-72
2021/04/21 08:44:41;;;;;;;46.97;24.65;;;;;;;11.37;68.49;102172.06;5041998;28;20084;-72
2021/04/21 08:47:12;;;;;;;45.55;25.98;;;;;;;10.96;69.44;102170.84;5038662;28;20135;-72
2021/04/21 08:49:40;;;;;;;42.95;23.45;;;;;;;10.72;71.26;102180.03;5044386;28;20056;-72
2021/04/21 08:52:08;;;;;;;47.38;24.58;;;;;;;10.72;70.58;102178.22;5038254;28;20068;-73
2021/04/21 08:54:37;;;;;;;40.63;24.60;;;;;;;10.81;70.98;102183.47;5038786;28;20082;-72
2021/04/21 08:57:05;;;;;;;45.85;24.77;;;;;;;10.88;70.43;102184.31;5039294;28;20274;-73
2021/04/21 08:59:33;;;;;;;45.40;23.95;;;;;;;11.00;70.71;102176.13;5037850;28;20053;-72
2021/04/21 09:02:00;;;;;;;49.33;27.05;;;;;;;11.20;69.80;102182.97;5037915;28;20414;-71
2021/04/21 09:04:27;;;;;;;47.70;25.83;;;;;;;11.24;69.83;102194.50;5041629;28;20111;-72
2021/04/21 09:06:55;;;;;;;46.92;25.70;;;;;;;11.03;70.45;102189.44;5037023;28;20214;-72
2021/04/21 09:09:22;;;;;;;47.33;27.30;;;;;;;11.29;69.55;102192.66;5035651;28;20073;-72
2021/04/21 09:11:55;;;;;;;43.88;24.80;;;;;;;11.43;68.46;102197.84;5038810;28;20068;-73
2021/04/21 09:14:22;;;;;;;40.80;23.20;;;;;;;11.41;67.95;102187.16;5037030;28;20083;-72
2021/04/21 09:16:50;;;;;;;39.50;21.52;;;;;;;11.90;66.23;102197.13;5039201;28;20333;-73
2021/04/21 09:19:17;;;;;;;37.95;20.17;;;;;;;11.82;66.28;102196.38;5035685;28;20152;-72
2021/04/21 09:21:44;;;;;;;35.42;18.45;;;;;;;11.80;66.07;102197.28;5041222;28;20053;-72
2021/04/21 09:24:13;;;;;;;33.13;18.60;;;;;;;11.84;65.93;102204.38;5033964;28;20163;-72
2021/04/21 09:26:41;;;;;;;34.85;18.83;;;;;;;11.94;65.41;102209.56;5038158;28;20128;-72
2021/04/21 09:29:08;;;;;;;38.33;19.35;;;;;;;11.60;65.94;102211.84;5040027;28;20071;-73
2021/04/21 09:31:35;;;;;;;42.33;21.13;;;;;;;11.61;65.99;102208.25;5041396;28;20061;-72
2021/04/21 09:34:14;;;;;;;33.97;18.50;;;;;;;11.78;65.92;102210.66;5038418;28;20098;-73
2021/04/21 09:36:43;;;;;;;32.90;19.10;;;;;;;11.71;65.94;102212.59;5041277;28;20514;-77
2021/04/21 09:39:16;;;;;;;35.63;19.77;;;;;;;11.78;65.85;102219.59;5046243;28;20148;-76
2021/04/21 09:41:44;;;;;;;32.92;18.88;;;;;;;11.67;66.22;102226.88;5037016;28;20168;-72
2021/04/21 09:44:13;;;;;;;30.80;17.55;;;;;;;11.81;65.59;102220.44;5040219;28;20053;-73
2021/04/21 09:46:42;;;;;;;37.10;18.70;;;;;;;11.87;66.27;102218.56;5039448;28;20355;-72
2021/04/21 09:49:30;;;;;;;34.80;18.38;;;;;;;11.91;65.10;102214.97;5038444;28;20061;-76
2021/04/21 09:51:58;;;;;;;37.28;20.35;;;;;;;11.97;64.81;102224.69;5038041;28;20060;-77
2021/04/21 09:54:29;;;;;;;35.05;19.10;;;;;;;12.09;64.72;102212.91;5042032;28;20063;-76
2021/04/21 09:57:15;;;;;;;33.80;18.60;;;;;;;12.31;64.46;102221.47;5043071;28;20437;-76
2021/04/21 09:59:56;;;;;;;33.38;18.77;;;;;;;11.80;65.06;102219.56;5040671;28;20072;-76
2021/04/21 10:02:34;;;;;;;34.97;18.85;;;;;;;11.64;65.92;102223.38;5055154;28;20100;-76
2021/04/21 10:05:26;;;;;;;39.10;19.40;;;;;;;11.91;65.29;102225.66;5042854;28;20069;-76
2021/04/21 10:08:14;;;;;;;35.00;19.60;;;;;;;11.76;65.95;102226.75;5044148;28;20061;-74
2021/04/21 10:10:43;;;;;;;34.65;20.25;;;;;;;11.71;65.53;102225.94;5040376;28;20061;-74
2021/04/21 10:13:14;;;;;;;36.85;20.08;;;;;;;11.50;66.70;102224.44;5037990;28;20362;-74
2021/04/21 10:15:50;;;;;;;34.15;19.85;;;;;;;11.72;65.64;102216.13;5037337;28;20053;-73
2021/04/21 10:18:17;;;;;;;34.70;20.00;;;;;;;11.72;65.75;102224.16;5036960;28;20061;-73
2021/04/21 10:20:46;;;;;;;36.95;20.55;;;;;;;11.72;64.88;102213.47;5039973;28;20472;-72
2021/04/21 10:23:13;;;;;;;36.17;20.52;;;;;;;12.25;64.45;102219.75;5036936;28;20440;-72
2021/04/21 10:25:42;;;;;;;35.30;20.13;;;;;;;12.48;64.04;102223.81;5039819;28;20058;-73
2021/04/21 10:28:09;;;;;;;38.42;20.85;;;;;;;12.50;62.94;102212.19;5036276;28;20061;-74
2021/04/21 10:30:39;;;;;;;33.47;19.48;;;;;;;12.57;62.37;102225.47;5054759;28;21993;-73
2021/04/21 10:33:08;;;;;;;35.53;18.33;;;;;;;12.52;62.62;102229.09;5036830;28;20057;-72
2021/04/21 10:36:01;;;;;;;34.13;19.77;;;;;;;12.18;63.22;102236.84;5040398;28;20191;-75
2021/04/21 10:38:29;;;;;;;31.17;18.27;;;;;;;12.24;63.20;102239.41;5038148;28;20408;-73
2021/04/21 10:41:26;;;;;;;30.42;18.10;;;;;;;12.17;63.05;102239.53;5038335;28;20467;-74
2021/04/21 10:44:14;;;;;;;34.63;16.42;;;;;;;11.98;63.14;102241.63;5035769;28;20063;-73
2021/04/21 10:47:02;;;;;;;27.85;16.58;;;;;;;12.00;63.06;102246.03;5038936;28;20061;-73
2021/04/21 10:49:55;;;;;;;26.73;15.77;;;;;;;12.19;62.24;102249.31;5035105;28;20092;-73
2021/04/21 10:52:33;;;;;;;26.42;15.25;;;;;;;11.80;63.32;102251.66;5036281;28;21084;-73
2021/04/21 10:55:22;;;;;;;24.58;15.13;;;;;;;11.75;63.17;102245.50;5038809;28;20554;-73
2021/04/21 10:57:58;;;;;;;23.48;14.88;;;;;;;11.68;63.56;102251.81;5036593;28;20775;-73
2021/04/21 11:00:27;;;;;;;20.85;14.05;;;;;;;11.60;63.54;102254.63;5039661;28;20056;-73
2021/04/21 11:03:01;;;;;;;23.45;14.07;;;;;;;11.46;63.61;102260.16;5035681;28;20311;-73
2021/04/21 11:05:52;;;;;;;22.98;14.02;;;;;;;11.49;63.82;102264.56;5035906;28;20576;-73
2021/04/21 11:08:21;;;;;;;21.98;13.70;;;;;;;11.39;62.84;102267.38;5035090;28;20498;-73
2021/04/21 11:11:05;;;;;;;22.92;13.18;;;;;;;11.73;62.55;102263.34;5039250;28;20092;-73
2021/04/21 11:13:41;;;;;;;19.48;11.32;;;;;;;11.88;61.64;102260.44;5035918;28;20068;-73
2021/04/21 11:16:36;;;;;;;16.50;10.30;;;;;;;12.18;59.64;102263.59;5036607;28;20097;-72
2021/04/21 11:19:26;;;;;;;15.55;9.98;;;;;;;12.95;57.38;102253.31;5036454;28;20138;-73
2021/04/21 11:22:30;;;;;;;17.02;9.90;;;;;;;13.51;55.13;102248.59;5036934;28;20061;-73
2021/04/21 11:25:20;;;;;;;15.57;8.68;;;;;;;13.76;54.31;102246.25;5035486;28;20068;-73
2021/04/21 11:27:47;;;;;;;13.30;8.45;;;;;;;13.38;54.59;102241.72;5051191;28;20400;-74
2021/04/21 11:30:51;;;;;;;16.00;9.00;;;;;;;13.32;55.17;102245.44;5033959;28;20122;-73
2021/04/21 11:33:37;;;;;;;;;;;;;;;13.14;55.06;102254.69;5040165;28;20111;-73
2021/04/21 11:36:34;;;;;;;10.90;6.30;;;;;;;13.32;55.49;102253.47;5040035;28;19929;-74
2021/04/21 11:39:02;;;;;;;11.68;5.88;;;;;;;13.23;55.22;102245.59;5041150;28;20491;-73
2021/04/21 11:41:43;;;;;;;9.60;5.30;;;;;;;13.21;54.12;102250.09;5039256;28;20061;-72
2021/04/21 11:44:10;;;;;;;10.68;4.57;;;;;;;13.16;54.81;102249.31;5033738;28;24339;-73
2021/04/21 11:46:56;;;;;;;8.15;4.70;;;;;;;13.23;53.76;102251.84;5043413;28;20053;-73
2021/04/21 11:50:00;;;;;;;10.55;5.57;;;;;;;13.31;54.10;102251.66;5040283;28;20114;-73